Terminal Aerodrome Forecast
Issued by NWS Omaha/Valley, NE

Home | Current Version | Previous Version | Text Only | Print | Product List | Glossary Off
Versions: 1 2 3 4 5 6 7 8 9 10 11 12 13 14

591
FTUS43 KOAX 191723
TAFOFK
TAF
KOFK 191723Z 1918/2018 03009KT P6SM BKN020 BKN150
     FM192000 05007KT P6SM OVC080
     FM200000 04007KT P6SM OVC050
     FM200500 02005KT 4SM -RA OVC015
     FM201100 02006KT 4SM -RA OVC009=

USA.gov is the U.S. government's official web portal to all federal, state and local government web resources and services.